メインページ
METAR-TAF:

METAR-TAF

空港 :

バンクーバー国際空港

バンクーバー, ブリティッシュコロンビア州, カナダ

緯度: 49-11N, 経度: 123-10W, 海抜: 3m

現時点の気象観測

当レポートは1時間7分前の07:00(UTC)に作成
の風 4kt
気温 6°C
湿度 87%
気圧 1020 hPa
視程: 32.2km
高度25000ftの雲はほとんどない

METAR: CYVR 190700Z 01004KT 20SM FEW250 06/04 A3011 RMK CI1 SLP198

時間: 01:07 (08:07 UTC)

予報

当レポートは2時間29分前の05:38(UTC)に作成
予報は19日の 06時(UTC)から 20日の 12時(UTC)まで有効
変向風 3kt
視程: 10km
高度25000ftの雲はほとんどない
19日の 17時(UTC)から 19日の 19時(UTC)まで徐々に
西の風 8kt
20日の 0300時(UTC)から
変向風 3kt
視程: 10km
晴天

TAF: CYVR 190538Z 1906/2012 VRB03KT P6SM FEW250 BECMG 1917/1919 26008KT FM200300 VRB03KT P6SM SKC RMK NXT FCST BY 190900Z

4,000以上の空港の気象観測と天気予報(METAR報とTAF報)

利用可能な観測所は地図上に黄色い丸と赤い丸で示す。

丸の上にカーソルを重ねると観測所名を参照できる。

次にクリックすると気象観測と天気予報を参照できる。

マップの切り替え:黒色「×」印の緑ボタンをクリックして拡大、「-」印の緑ボタンをクリックして縮小、緑色の三角印をクリックして隣りの地図に切り替え


METAR-TAF: